TimeEST,TemperatureF,Dew PointF,Humidity,Sea Level PressureIn,VisibilityMPH,Wind Direction,Wind SpeedMPH,Gust SpeedMPH,PrecipitationIn,Events,Conditions,WindDirDegrees,DateUTC
12:56 AM,35.1,32.0,89,30.25,10.0,West,4.6,-,N/A,,Clear,270,2013-01-07 05:56:00
1:56 AM,34.0,30.9,89,30.25,10.0,Calm,Calm,-,N/A,,Clear,0,2013-01-07 06:56:00
2:56 AM,30.9,28.9,92,30.25,10.0,Calm,Calm,-,N/A,,Clear,0,2013-01-07 07:56:00
3:56 AM,28.9,28.0,96,30.27,10.0,WNW,3.5,-,N/A,,Clear,300,2013-01-07 08:56:00
4:56 AM,28.9,28.0,96,30.29,10.0,NW,3.5,-,N/A,,Clear,320,2013-01-07 09:56:00
5:56 AM,30.9,28.9,92,30.31,10.0,Calm,Calm,-,N/A,,Clear,0,2013-01-07 10:56:00
6:56 AM,28.9,27.0,92,30.34,10.0,Calm,Calm,-,N/A,,Clear,0,2013-01-07 11:56:00
7:56 AM,27.0,26.1,96,30.36,9.0,Calm,Calm,-,N/A,,Clear,0,2013-01-07 12:56:00
8:56 AM,34.0,30.9,89,30.39,10.0,NNE,4.6,-,N/A,,Clear,30,2013-01-07 13:56:00
10:56 AM,48.0,30.0,50,30.43,10.0,ENE,8.1,-,N/A,,Clear,70,2013-01-07 15:56:00
11:56 AM,50.0,30.0,46,30.41,10.0,East,6.9,-,N/A,,Clear,80,2013-01-07 16:56:00
12:56 PM,52.0,30.0,43,30.38,10.0,East,9.2,-,N/A,,Clear,80,2013-01-07 17:56:00
1:56 PM,52.0,28.0,40,30.36,10.0,ENE,8.1,-,N/A,,Clear,60,2013-01-07 18:56:00
2:56 PM,53.1,28.0,38,30.36,10.0,East,5.8,-,N/A,,Clear,90,2013-01-07 19:56:00
3:56 PM,52.0,28.9,41,30.37,10.0,East,3.5,-,N/A,,Clear,80,2013-01-07 20:56:00
4:56 PM,51.1,30.0,44,30.38,10.0,East,3.5,-,N/A,,Clear,80,2013-01-07 21:56:00
5:56 PM,45.0,30.9,58,30.40,10.0,Calm,Calm,-,N/A,,Clear,0,2013-01-07 22:56:00
7:56 PM,39.0,30.9,73,30.40,10.0,Calm,Calm,-,N/A,,Clear,0,2013-01-08 00:56:00
8:56 PM,35.1,30.9,85,30.42,10.0,Calm,Calm,-,N/A,,Clear,0,2013-01-08 01:56:00
9:56 PM,33.1,30.0,89,30.41,10.0,NE,3.5,-,N/A,,Clear,40,2013-01-08 02:56:00
10:56 PM,30.9,28.0,89,30.41,10.0,Calm,Calm,-,N/A,,Clear,0,2013-01-08 03:56:00
11:56 PM,30.9,28.0,89,30.42,9.0,Calm,Calm,-,N/A,,Clear,0,2013-01-08 04:56:00